»·PEaware :: CGCMV CED5-CYXC

CGCMV :: CED5-CYXC

FLIGHT INFORMATION

Flight Status: Arrived
Operator: Unknown
More flights by this operator :: More flights under this callsign
Pilot: Sherman V. (22519)
Aircraft: BEECH AIRCRAFT BARON
(BE58)
More flights by this aircraft type
Origin: CED5 Taber
Canada
Destination: CYXC Cranbrook
Canada
More flights between these airports :: More routes between these airports
Route:
File this flight plan on PilotEdge
Remarks:
Altitude:
(Current/Filed)
12,000ft
Speed:
(Current/Filed)
160kts
Departed: 25-May-20 09:15 PM
Arrived: 25-May-20 10:29 PM
Distance/Time
Traveled:
140nm/1:14
Distance/Time
To Go:
Arrived

Flight Plot

Page will automatically refresh every two minutes.

Flight plan parsing failed; only flown route is shown


Map Options




Map Legend


Flown Route
Filed Route
Departure Airport
Arrival Airport
Navaid (VOR, NDB)
Fix

Horizontal Profiles

Position Reports

Time Latitude Longitude Heading Altitude Ground
Speed
25-May-20 21:08 49.826276 -112.176858 154 2642ft 0kts
25-May-20 21:09 49.826276 -112.176858 154 2642ft 0kts
25-May-20 21:10 49.826276 -112.176858 154 2642ft 0kts
25-May-20 21:11 49.826276 -112.176858 154 2642ft 0kts
25-May-20 21:12 49.826279 -112.177446 298 2644ft 7kts
25-May-20 21:13 49.826868 -112.178226 323 2645ft 4kts
25-May-20 21:14 49.821253 -112.200464 249 3203ft 99kts
25-May-20 21:15 49.820678 -112.235196 272 5089ft 71kts
25-May-20 21:16 49.821443 -112.274410 263 6232ft 106kts
25-May-20 21:17 49.819742 -112.320592 262 7529ft 108kts
25-May-20 21:18 49.817700 -112.366572 262 8747ft 106kts
25-May-20 21:19 49.815635 -112.411940 262 9839ft 106kts
25-May-20 21:20 49.813527 -112.457374 262 10832ft 106kts
25-May-20 21:21 49.811439 -112.502678 262 11737ft 104kts
25-May-20 21:22 49.809277 -112.549093 262 12523ft 110kts
25-May-20 21:23 49.807041 -112.596413 262 13300ft 110kts
25-May-20 21:24 49.804821 -112.643444 262 13971ft 114kts
25-May-20 21:25 49.802143 -112.699200 262 14062ft 142kts
25-May-20 21:26 49.799017 -112.763694 262 13997ft 156kts
25-May-20 21:27 49.795704 -112.830746 263 14011ft 156kts
25-May-20 21:28 49.792381 -112.897978 266 13998ft 156kts
25-May-20 21:29 49.788996 -112.964935 268 13999ft 157kts
25-May-20 21:30 49.785535 -113.033480 269 13796ft 168kts
25-May-20 21:31 49.781725 -113.108575 269 13214ft 180kts
25-May-20 21:32 49.777640 -113.186891 269 12533ft 185kts
25-May-20 21:33 49.773401 -113.266883 269 11972ft 180kts
25-May-20 21:34 49.769329 -113.342903 269 12000ft 176kts
25-May-20 21:35 49.766584 -113.418273 287 11945ft 176kts
25-May-20 21:36 49.781943 -113.487914 292 12021ft 171kts
25-May-20 21:37 49.797635 -113.557281 292 12047ft 171kts
25-May-20 21:38 49.813412 -113.627114 292 12043ft 171kts
25-May-20 21:39 49.829237 -113.697176 291 12041ft 172kts
25-May-20 21:40 49.844897 -113.767167 291 12040ft 172kts
25-May-20 21:41 49.860610 -113.837260 291 12039ft 172kts
25-May-20 21:42 49.876317 -113.907480 291 12039ft 172kts
25-May-20 21:43 49.891843 -113.977583 291 12038ft 172kts
25-May-20 21:44 49.907408 -114.047896 291 12039ft 172kts
25-May-20 21:45 49.922961 -114.118098 291 12039ft 172kts
25-May-20 21:46 49.938458 -114.188477 291 12040ft 172kts
25-May-20 21:47 49.953587 -114.257588 291 12256ft 162kts
25-May-20 21:48 49.967694 -114.321885 291 12753ft 153kts
25-May-20 21:49 49.982142 -114.388290 291 12778ft 166kts
25-May-20 21:50 49.997139 -114.457354 291 12739ft 169kts
25-May-20 21:51 50.012193 -114.526927 291 12734ft 169kts
25-May-20 21:52 50.027146 -114.596407 291 12735ft 169kts
25-May-20 21:53 50.042070 -114.665891 291 12735ft 169kts
25-May-20 21:54 50.056998 -114.735551 291 12736ft 170kts
25-May-20 21:55 50.071904 -114.805363 291 12749ft 169kts
25-May-20 21:56 50.086711 -114.874949 291 12763ft 169kts
25-May-20 21:57 50.101479 -114.944589 291 12778ft 169kts
25-May-20 21:58 50.116238 -115.014294 290 12783ft 169kts
25-May-20 21:59 50.130953 -115.084136 289 12782ft 169kts
25-May-20 22:00 50.145622 -115.154026 288 12782ft 169kts
25-May-20 22:01 50.160252 -115.224041 287 12784ft 170kts
25-May-20 22:02 50.152225 -115.279420 245 12702ft 177kts
25-May-20 22:03 50.128078 -115.346239 242 12648ft 178kts
25-May-20 22:04 50.103161 -115.411427 242 12672ft 174kts
25-May-20 22:05 50.078256 -115.475857 242 12694ft 171kts
25-May-20 22:06 50.053496 -115.539760 242 12694ft 173kts
25-May-20 22:08 50.027564 -115.606447 241 12313ft 187kts
25-May-20 22:09 49.999967 -115.677249 240 11743ft 193kts
25-May-20 22:10 49.971941 -115.749132 240 11017ft 194kts
25-May-20 22:11 49.965004 -115.821444 332 9424ft 201kts
25-May-20 22:12 50.017131 -115.800749 1 8196ft 191kts
25-May-20 22:13 50.055282 -115.845339 310 7918ft 157kts
25-May-20 22:14 50.083890 -115.896242 309 7898ft 155kts
25-May-20 22:15 50.107598 -115.869370 120 7926ft 163kts
25-May-20 22:16 50.077489 -115.815415 137 7891ft 167kts
25-May-20 22:17 50.033980 -115.800448 178 7925ft 162kts
25-May-20 22:18 49.988956 -115.795705 178 7954ft 162kts
25-May-20 22:19 49.943856 -115.790864 178 7984ft 163kts
25-May-20 22:20 49.901755 -115.788449 182 7937ft 127kts
25-May-20 22:21 49.864549 -115.787727 182 7760ft 124kts
25-May-20 22:22 49.830735 -115.786981 182 7197ft 123kts
25-May-20 22:23 49.796042 -115.786180 182 6576ft 127kts
25-May-20 22:24 49.760494 -115.785455 182 5875ft 129kts
25-May-20 22:25 49.724644 -115.784601 181 5105ft 128kts
25-May-20 22:25 49.694799 -115.783931 180 4516ft 129kts
25-May-20 22:27 49.655859 -115.783057 180 3683ft 101kts
25-May-20 22:27 49.633307 -115.782547 179 3274ft 96kts
25-May-20 22:28 49.611823 -115.782048 179 3042ft 39kts
25-May-20 22:30 49.609678 -115.784914 324 3050ft 0kts
25-May-20 22:30 49.610414 -115.785473 237 3046ft 4kts
25-May-20 22:32 49.610374 -115.785499 180 3046ft 0kts

Navigation Log

Ident Type
Flight plan parsing failed, navigation log unavailable